sensor_id;sensor_type;location;lat;lon;timestamp;P1;durP1;ratioP1;P2;durP2;ratioP2
8532;SDS011;4304;53.876;10.662;2022-09-09T00:00:14;33.35;;;15.30;;
8532;SDS011;4304;53.876;10.662;2022-09-09T00:02:42;37.15;;;15.23;;
8532;SDS011;4304;53.876;10.662;2022-09-09T00:08:21;38.22;;;15.85;;
8532;SDS011;4304;53.876;10.662;2022-09-09T00:10:52;31.27;;;14.48;;
8532;SDS011;4304;53.876;10.662;2022-09-09T00:13:57;32.45;;;14.85;;
8532;SDS011;4304;53.876;10.662;2022-09-09T00:16:27;35.15;;;15.30;;
8532;SDS011;4304;53.876;10.662;2022-09-09T00:19:00;37.90;;;16.67;;
8532;SDS011;4304;53.876;10.662;2022-09-09T00:27:08;36.88;;;15.65;;
8532;SDS011;4304;53.876;10.662;2022-09-09T00:29:43;37.10;;;16.25;;
8532;SDS011;4304;53.876;10.662;2022-09-09T00:32:16;35.63;;;16.38;;
8532;SDS011;4304;53.876;10.662;2022-09-09T00:34:53;40.38;;;16.30;;
8532;SDS011;4304;53.876;10.662;2022-09-09T00:37:21;35.05;;;15.82;;
8532;SDS011;4304;53.876;10.662;2022-09-09T00:39:49;37.80;;;15.93;;
8532;SDS011;4304;53.876;10.662;2022-09-09T00:45:17;35.60;;;16.27;;
8532;SDS011;4304;53.876;10.662;2022-09-09T00:47:55;34.75;;;15.35;;
8532;SDS011;4304;53.876;10.662;2022-09-09T00:56:18;38.15;;;16.52;;
8532;SDS011;4304;53.876;10.662;2022-09-09T00:58:50;36.35;;;17.15;;
8532;SDS011;4304;53.876;10.662;2022-09-09T01:01:19;38.95;;;16.92;;
8532;SDS011;4304;53.876;10.662;2022-09-09T01:06:29;39.13;;;16.95;;
8532;SDS011;4304;53.876;10.662;2022-09-09T01:19:57;33.60;;;16.30;;
8532;SDS011;4304;53.876;10.662;2022-09-09T01:22:35;34.63;;;16.88;;
8532;SDS011;4304;53.876;10.662;2022-09-09T01:27:35;34.05;;;17.17;;
8532;SDS011;4304;53.876;10.662;2022-09-09T01:30:12;34.25;;;16.75;;
8532;SDS011;4304;53.876;10.662;2022-09-09T01:35:26;34.50;;;17.52;;
8532;SDS011;4304;53.876;10.662;2022-09-09T01:37:56;28.23;;;15.55;;
8532;SDS011;4304;53.876;10.662;2022-09-09T01:40:21;27.95;;;14.63;;
8532;SDS011;4304;53.876;10.662;2022-09-09T01:42:47;30.20;;;15.10;;
8532;SDS011;4304;53.876;10.662;2022-09-09T01:45:12;25.98;;;14.23;;
8532;SDS011;4304;53.876;10.662;2022-09-09T01:47:38;27.67;;;14.57;;
8532;SDS011;4304;53.876;10.662;2022-09-09T01:50:03;25.55;;;13.20;;
8532;SDS011;4304;53.876;10.662;2022-09-09T01:52:30;26.98;;;14.30;;
8532;SDS011;4304;53.876;10.662;2022-09-09T01:54:58;27.10;;;14.98;;
8532;SDS011;4304;53.876;10.662;2022-09-09T01:57:27;25.40;;;13.85;;
8532;SDS011;4304;53.876;10.662;2022-09-09T02:00:05;25.77;;;13.93;;
8532;SDS011;4304;53.876;10.662;2022-09-09T02:07:38;23.98;;;12.73;;
8532;SDS011;4304;53.876;10.662;2022-09-09T02:10:11;23.88;;;13.85;;
8532;SDS011;4304;53.876;10.662;2022-09-09T02:12:42;21.42;;;11.93;;
8532;SDS011;4304;53.876;10.662;2022-09-09T02:15:16;22.48;;;12.57;;
8532;SDS011;4304;53.876;10.662;2022-09-09T02:17:46;22.85;;;13.05;;
8532;SDS011;4304;53.876;10.662;2022-09-09T02:20:15;24.27;;;13.13;;
8532;SDS011;4304;53.876;10.662;2022-09-09T02:22:41;24.25;;;13.43;;
8532;SDS011;4304;53.876;10.662;2022-09-09T02:25:09;21.65;;;12.85;;
8532;SDS011;4304;53.876;10.662;2022-09-09T02:27:37;26.42;;;14.43;;
8532;SDS011;4304;53.876;10.662;2022-09-09T02:30:03;23.48;;;12.60;;
8532;SDS011;4304;53.876;10.662;2022-09-09T02:32:29;24.83;;;12.80;;
8532;SDS011;4304;53.876;10.662;2022-09-09T02:35:00;23.92;;;13.98;;
8532;SDS011;4304;53.876;10.662;2022-09-09T02:37:34;23.63;;;13.63;;
8532;SDS011;4304;53.876;10.662;2022-09-09T02:40:03;26.58;;;14.90;;
8532;SDS011;4304;53.876;10.662;2022-09-09T02:42:31;28.75;;;14.07;;
8532;SDS011;4304;53.876;10.662;2022-09-09T02:44:57;25.90;;;12.95;;
8532;SDS011;4304;53.876;10.662;2022-09-09T02:47:27;29.30;;;14.80;;
8532;SDS011;4304;53.876;10.662;2022-09-09T02:55:35;21.42;;;12.20;;
8532;SDS011;4304;53.876;10.662;2022-09-09T02:58:09;22.83;;;13.07;;
8532;SDS011;4304;53.876;10.662;2022-09-09T03:00:37;23.35;;;13.07;;
8532;SDS011;4304;53.876;10.662;2022-09-09T03:03:03;23.63;;;13.25;;
8532;SDS011;4304;53.876;10.662;2022-09-09T03:05:29;24.67;;;12.70;;
8532;SDS011;4304;53.876;10.662;2022-09-09T03:07:54;25.67;;;14.00;;
8532;SDS011;4304;53.876;10.662;2022-09-09T03:10:20;26.20;;;13.57;;
8532;SDS011;4304;53.876;10.662;2022-09-09T03:12:45;23.95;;;12.93;;
8532;SDS011;4304;53.876;10.662;2022-09-09T03:15:10;24.38;;;13.63;;
8532;SDS011;4304;53.876;10.662;2022-09-09T03:17:35;25.75;;;14.10;;
8532;SDS011;4304;53.876;10.662;2022-09-09T03:20:02;27.60;;;14.05;;
8532;SDS011;4304;53.876;10.662;2022-09-09T03:22:27;24.10;;;12.90;;
8532;SDS011;4304;53.876;10.662;2022-09-09T03:24:53;21.65;;;12.85;;
8532;SDS011;4304;53.876;10.662;2022-09-09T03:27:18;27.63;;;14.00;;
8532;SDS011;4304;53.876;10.662;2022-09-09T03:29:43;23.42;;;13.15;;
8532;SDS011;4304;53.876;10.662;2022-09-09T03:32:09;27.33;;;15.20;;
8532;SDS011;4304;53.876;10.662;2022-09-09T03:34:34;22.70;;;12.27;;
8532;SDS011;4304;53.876;10.662;2022-09-09T03:36:59;24.55;;;13.82;;
8532;SDS011;4304;53.876;10.662;2022-09-09T03:39:24;31.92;;;14.55;;
8532;SDS011;4304;53.876;10.662;2022-09-09T03:41:49;25.83;;;12.90;;
8532;SDS011;4304;53.876;10.662;2022-09-09T03:44:15;22.05;;;12.50;;
8532;SDS011;4304;53.876;10.662;2022-09-09T03:46:40;22.95;;;12.43;;
8532;SDS011;4304;53.876;10.662;2022-09-09T03:49:05;24.15;;;12.70;;
8532;SDS011;4304;53.876;10.662;2022-09-09T03:51:30;22.27;;;13.00;;
8532;SDS011;4304;53.876;10.662;2022-09-09T03:53:56;21.30;;;12.50;;
8532;SDS011;4304;53.876;10.662;2022-09-09T03:56:21;24.77;;;12.73;;
8532;SDS011;4304;53.876;10.662;2022-09-09T03:58:46;24.40;;;13.77;;
8532;SDS011;4304;53.876;10.662;2022-09-09T04:01:12;23.77;;;12.57;;
8532;SDS011;4304;53.876;10.662;2022-09-09T04:03:38;26.52;;;14.75;;
8532;SDS011;4304;53.876;10.662;2022-09-09T04:06:05;23.83;;;12.90;;
8532;SDS011;4304;53.876;10.662;2022-09-09T04:08:31;27.50;;;13.65;;
8532;SDS011;4304;53.876;10.662;2022-09-09T04:10:56;22.67;;;13.57;;
8532;SDS011;4304;53.876;10.662;2022-09-09T04:13:22;24.05;;;13.10;;
8532;SDS011;4304;53.876;10.662;2022-09-09T04:15:51;23.58;;;12.63;;
8532;SDS011;4304;53.876;10.662;2022-09-09T04:18:18;22.38;;;12.40;;
8532;SDS011;4304;53.876;10.662;2022-09-09T04:20:45;24.08;;;12.98;;
8532;SDS011;4304;53.876;10.662;2022-09-09T04:23:11;23.88;;;13.32;;
8532;SDS011;4304;53.876;10.662;2022-09-09T04:25:36;22.73;;;12.60;;
8532;SDS011;4304;53.876;10.662;2022-09-09T04:28:01;22.88;;;12.23;;
8532;SDS011;4304;53.876;10.662;2022-09-09T04:30:27;21.27;;;11.68;;
8532;SDS011;4304;53.876;10.662;2022-09-09T04:32:52;21.88;;;12.77;;
8532;SDS011;4304;53.876;10.662;2022-09-09T04:35:17;23.52;;;13.20;;
8532;SDS011;4304;53.876;10.662;2022-09-09T04:37:43;24.13;;;14.27;;
8532;SDS011;4304;53.876;10.662;2022-09-09T04:40:08;22.92;;;13.13;;
8532;SDS011;4304;53.876;10.662;2022-09-09T04:42:36;28.33;;;14.40;;
8532;SDS011;4304;53.876;10.662;2022-09-09T04:45:02;26.38;;;14.13;;
8532;SDS011;4304;53.876;10.662;2022-09-09T04:47:28;25.02;;;13.82;;
8532;SDS011;4304;53.876;10.662;2022-09-09T04:49:53;23.92;;;14.05;;
8532;SDS011;4304;53.876;10.662;2022-09-09T04:52:18;29.48;;;14.95;;
8532;SDS011;4304;53.876;10.662;2022-09-09T04:54:43;29.75;;;15.23;;
8532;SDS011;4304;53.876;10.662;2022-09-09T04:57:10;24.52;;;14.07;;
8532;SDS011;4304;53.876;10.662;2022-09-09T04:59:35;27.13;;;14.80;;
8532;SDS011;4304;53.876;10.662;2022-09-09T05:02:00;29.60;;;14.95;;
8532;SDS011;4304;53.876;10.662;2022-09-09T05:04:26;25.58;;;15.13;;
8532;SDS011;4304;53.876;10.662;2022-09-09T05:06:51;29.92;;;15.77;;
8532;SDS011;4304;53.876;10.662;2022-09-09T05:09:16;28.92;;;15.38;;
8532;SDS011;4304;53.876;10.662;2022-09-09T05:11:41;30.88;;;14.80;;
8532;SDS011;4304;53.876;10.662;2022-09-09T05:14:07;23.70;;;13.95;;
8532;SDS011;4304;53.876;10.662;2022-09-09T05:16:32;30.73;;;15.27;;
8532;SDS011;4304;53.876;10.662;2022-09-09T05:18:57;29.52;;;15.48;;
8532;SDS011;4304;53.876;10.662;2022-09-09T05:21:23;27.27;;;14.30;;
8532;SDS011;4304;53.876;10.662;2022-09-09T05:23:50;26.17;;;14.75;;
8532;SDS011;4304;53.876;10.662;2022-09-09T05:26:16;25.02;;;14.23;;
8532;SDS011;4304;53.876;10.662;2022-09-09T05:28:43;23.52;;;13.95;;
8532;SDS011;4304;53.876;10.662;2022-09-09T05:31:09;27.00;;;13.85;;
8532;SDS011;4304;53.876;10.662;2022-09-09T05:33:36;23.83;;;13.88;;
8532;SDS011;4304;53.876;10.662;2022-09-09T05:36:03;20.35;;;12.70;;
8532;SDS011;4304;53.876;10.662;2022-09-09T05:38:30;27.38;;;14.02;;
8532;SDS011;4304;53.876;10.662;2022-09-09T05:40:59;24.77;;;14.57;;
8532;SDS011;4304;53.876;10.662;2022-09-09T05:43:25;22.02;;;12.68;;
8532;SDS011;4304;53.876;10.662;2022-09-09T05:48:37;23.05;;;13.95;;
8532;SDS011;4304;53.876;10.662;2022-09-09T05:51:03;22.52;;;13.50;;
8532;SDS011;4304;53.876;10.662;2022-09-09T05:53:30;23.17;;;12.50;;
8532;SDS011;4304;53.876;10.662;2022-09-09T05:56:02;24.77;;;14.05;;
8532;SDS011;4304;53.876;10.662;2022-09-09T05:58:32;24.58;;;13.10;;
8532;SDS011;4304;53.876;10.662;2022-09-09T06:01:05;22.15;;;12.95;;
8532;SDS011;4304;53.876;10.662;2022-09-09T06:03:40;25.65;;;12.77;;
8532;SDS011;4304;53.876;10.662;2022-09-09T06:06:07;22.48;;;12.55;;
8532;SDS011;4304;53.876;10.662;2022-09-09T06:08:34;21.65;;;13.15;;
8532;SDS011;4304;53.876;10.662;2022-09-09T06:11:01;23.38;;;12.82;;
8532;SDS011;4304;53.876;10.662;2022-09-09T06:13:28;22.48;;;12.90;;
8532;SDS011;4304;53.876;10.662;2022-09-09T06:15:54;21.73;;;11.90;;
8532;SDS011;4304;53.876;10.662;2022-09-09T06:18:20;24.35;;;13.27;;
8532;SDS011;4304;53.876;10.662;2022-09-09T06:23:20;18.98;;;11.85;;
8532;SDS011;4304;53.876;10.662;2022-09-09T06:25:46;21.25;;;12.05;;
8532;SDS011;4304;53.876;10.662;2022-09-09T06:28:11;19.95;;;11.15;;
8532;SDS011;4304;53.876;10.662;2022-09-09T06:30:36;20.52;;;11.75;;
8532;SDS011;4304;53.876;10.662;2022-09-09T06:33:02;20.23;;;12.00;;
8532;SDS011;4304;53.876;10.662;2022-09-09T06:35:27;19.27;;;10.80;;
8532;SDS011;4304;53.876;10.662;2022-09-09T06:37:52;20.30;;;11.20;;
8532;SDS011;4304;53.876;10.662;2022-09-09T06:40:18;17.83;;;10.82;;
8532;SDS011;4304;53.876;10.662;2022-09-09T06:42:43;20.27;;;10.55;;
8532;SDS011;4304;53.876;10.662;2022-09-09T06:45:08;16.55;;;9.95;;
8532;SDS011;4304;53.876;10.662;2022-09-09T06:47:34;18.75;;;11.40;;
8532;SDS011;4304;53.876;10.662;2022-09-09T06:49:59;19.02;;;10.45;;
8532;SDS011;4304;53.876;10.662;2022-09-09T06:52:24;16.05;;;9.07;;
8532;SDS011;4304;53.876;10.662;2022-09-09T06:54:49;17.25;;;10.05;;
8532;SDS011;4304;53.876;10.662;2022-09-09T06:57:14;15.27;;;9.38;;
8532;SDS011;4304;53.876;10.662;2022-09-09T06:59:40;14.73;;;9.00;;
8532;SDS011;4304;53.876;10.662;2022-09-09T07:02:05;14.88;;;9.18;;
8532;SDS011;4304;53.876;10.662;2022-09-09T07:04:30;14.23;;;9.07;;
8532;SDS011;4304;53.876;10.662;2022-09-09T07:06:55;13.70;;;8.57;;
8532;SDS011;4304;53.876;10.662;2022-09-09T07:09:20;11.75;;;7.55;;
8532;SDS011;4304;53.876;10.662;2022-09-09T07:11:46;14.60;;;8.88;;
8532;SDS011;4304;53.876;10.662;2022-09-09T07:14:14;13.93;;;8.40;;
8532;SDS011;4304;53.876;10.662;2022-09-09T07:16:43;12.63;;;7.90;;
8532;SDS011;4304;53.876;10.662;2022-09-09T07:19:09;14.52;;;8.63;;
8532;SDS011;4304;53.876;10.662;2022-09-09T07:21:35;14.85;;;7.78;;
8532;SDS011;4304;53.876;10.662;2022-09-09T07:24:01;13.18;;;8.93;;
8532;SDS011;4304;53.876;10.662;2022-09-09T07:26:27;11.30;;;7.95;;
8532;SDS011;4304;53.876;10.662;2022-09-09T07:28:54;13.65;;;8.60;;
8532;SDS011;4304;53.876;10.662;2022-09-09T07:31:21;14.23;;;7.93;;
8532;SDS011;4304;53.876;10.662;2022-09-09T07:33:48;12.25;;;7.50;;
8532;SDS011;4304;53.876;10.662;2022-09-09T07:38:47;9.90;;;6.80;;
8532;SDS011;4304;53.876;10.662;2022-09-09T07:41:16;10.68;;;6.50;;
8532;SDS011;4304;53.876;10.662;2022-09-09T07:43:46;8.73;;;6.15;;
8532;SDS011;4304;53.876;10.662;2022-09-09T07:46:14;9.38;;;6.35;;
8532;SDS011;4304;53.876;10.662;2022-09-09T07:48:44;7.10;;;5.63;;
8532;SDS011;4304;53.876;10.662;2022-09-09T07:51:11;10.85;;;5.88;;
8532;SDS011;4304;53.876;10.662;2022-09-09T07:53:38;13.15;;;6.57;;
8532;SDS011;4304;53.876;10.662;2022-09-09T07:56:08;8.48;;;5.85;;
8532;SDS011;4304;53.876;10.662;2022-09-09T07:58:37;8.05;;;5.35;;
8532;SDS011;4304;53.876;10.662;2022-09-09T08:01:07;6.03;;;4.35;;
8532;SDS011;4304;53.876;10.662;2022-09-09T08:03:35;5.65;;;4.38;;
8532;SDS011;4304;53.876;10.662;2022-09-09T08:06:01;6.78;;;3.70;;
8532;SDS011;4304;53.876;10.662;2022-09-09T08:08:28;5.80;;;3.78;;
8532;SDS011;4304;53.876;10.662;2022-09-09T08:10:53;5.07;;;4.00;;
8532;SDS011;4304;53.876;10.662;2022-09-09T08:13:26;10.23;;;4.00;;
8532;SDS011;4304;53.876;10.662;2022-09-09T08:15:53;5.60;;;3.97;;
8532;SDS011;4304;53.876;10.662;2022-09-09T08:18:18;6.25;;;4.32;;
8532;SDS011;4304;53.876;10.662;2022-09-09T08:20:43;5.30;;;3.65;;
8532;SDS011;4304;53.876;10.662;2022-09-09T08:23:08;8.38;;;3.95;;
8532;SDS011;4304;53.876;10.662;2022-09-09T08:25:33;4.55;;;3.80;;
8532;SDS011;4304;53.876;10.662;2022-09-09T08:27:59;4.47;;;3.40;;
8532;SDS011;4304;53.876;10.662;2022-09-09T08:30:24;6.40;;;3.92;;
8532;SDS011;4304;53.876;10.662;2022-09-09T08:32:49;6.00;;;3.70;;
8532;SDS011;4304;53.876;10.662;2022-09-09T08:35:14;4.03;;;3.53;;
8532;SDS011;4304;53.876;10.662;2022-09-09T08:37:39;3.92;;;3.53;;
8532;SDS011;4304;53.876;10.662;2022-09-09T08:40:05;6.87;;;4.27;;
8532;SDS011;4304;53.876;10.662;2022-09-09T08:42:41;6.82;;;4.00;;
8532;SDS011;4304;53.876;10.662;2022-09-09T08:45:18;6.50;;;3.65;;
8532;SDS011;4304;53.876;10.662;2022-09-09T08:50:22;5.10;;;3.60;;
8532;SDS011;4304;53.876;10.662;2022-09-09T08:57:52;9.25;;;3.95;;
8532;SDS011;4304;53.876;10.662;2022-09-09T09:00:19;8.73;;;4.10;;
8532;SDS011;4304;53.876;10.662;2022-09-09T09:02:53;5.45;;;4.18;;
8532;SDS011;4304;53.876;10.662;2022-09-09T09:08:26;5.25;;;3.85;;
8532;SDS011;4304;53.876;10.662;2022-09-09T09:11:00;6.93;;;3.72;;
8532;SDS011;4304;53.876;10.662;2022-09-09T09:13:31;5.00;;;4.30;;
8532;SDS011;4304;53.876;10.662;2022-09-09T09:16:07;5.88;;;3.97;;
8532;SDS011;4304;53.876;10.662;2022-09-09T09:18:39;8.45;;;4.47;;
8532;SDS011;4304;53.876;10.662;2022-09-09T09:23:57;8.10;;;3.97;;
8532;SDS011;4304;53.876;10.662;2022-09-09T09:26:23;5.60;;;3.60;;
8532;SDS011;4304;53.876;10.662;2022-09-09T09:28:54;4.28;;;3.40;;
8532;SDS011;4304;53.876;10.662;2022-09-09T09:31:20;4.35;;;3.53;;
8532;SDS011;4304;53.876;10.662;2022-09-09T09:36:15;4.35;;;3.00;;
8532;SDS011;4304;53.876;10.662;2022-09-09T09:39:00;4.72;;;3.30;;
8532;SDS011;4304;53.876;10.662;2022-09-09T09:43:57;4.50;;;2.92;;
8532;SDS011;4304;53.876;10.662;2022-09-09T09:46:24;5.00;;;2.90;;
8532;SDS011;4304;53.876;10.662;2022-09-09T09:48:56;3.30;;;2.75;;
8532;SDS011;4304;53.876;10.662;2022-09-09T09:51:25;4.63;;;2.53;;
8532;SDS011;4304;53.876;10.662;2022-09-09T09:53:52;8.23;;;3.13;;
8532;SDS011;4304;53.876;10.662;2022-09-09T09:56:18;3.40;;;2.80;;
8532;SDS011;4304;53.876;10.662;2022-09-09T09:58:51;4.63;;;2.58;;
8532;SDS011;4304;53.876;10.662;2022-09-09T10:01:39;4.63;;;2.60;;
8532;SDS011;4304;53.876;10.662;2022-09-09T10:04:19;3.85;;;2.50;;
8532;SDS011;4304;53.876;10.662;2022-09-09T10:06:46;2.75;;;2.20;;
8532;SDS011;4304;53.876;10.662;2022-09-09T10:09:45;2.35;;;2.03;;
8532;SDS011;4304;53.876;10.662;2022-09-09T10:22:51;3.63;;;2.40;;
8532;SDS011;4304;53.876;10.662;2022-09-09T10:35:27;3.00;;;1.80;;
8532;SDS011;4304;53.876;10.662;2022-09-09T10:40:31;3.15;;;1.70;;
8532;SDS011;4304;53.876;10.662;2022-09-09T10:45:59;4.25;;;2.25;;
8532;SDS011;4304;53.876;10.662;2022-09-09T10:48:55;4.30;;;2.25;;
8532;SDS011;4304;53.876;10.662;2022-09-09T10:51:37;3.50;;;1.75;;
8532;SDS011;4304;53.876;10.662;2022-09-09T10:54:20;2.83;;;2.00;;
8532;SDS011;4304;53.876;10.662;2022-09-09T10:56:51;2.45;;;1.80;;
8532;SDS011;4304;53.876;10.662;2022-09-09T10:59:20;2.97;;;2.17;;
8532;SDS011;4304;53.876;10.662;2022-09-09T11:02:12;1.50;;;1.40;;
8532;SDS011;4304;53.876;10.662;2022-09-09T11:04:45;1.70;;;1.20;;
8532;SDS011;4304;53.876;10.662;2022-09-09T11:07:20;1.55;;;1.30;;
8532;SDS011;4304;53.876;10.662;2022-09-09T11:09:54;1.63;;;1.20;;
8532;SDS011;4304;53.876;10.662;2022-09-09T11:12:24;1.35;;;1.25;;
8532;SDS011;4304;53.876;10.662;2022-09-09T11:15:04;1.08;;;0.98;;
8532;SDS011;4304;53.876;10.662;2022-09-09T11:17:42;5.13;;;1.50;;
8532;SDS011;4304;53.876;10.662;2022-09-09T11:20:11;1.10;;;1.00;;
8532;SDS011;4304;53.876;10.662;2022-09-09T11:22:39;2.45;;;1.15;;
8532;SDS011;4304;53.876;10.662;2022-09-09T11:25:19;1.58;;;1.15;;
8532;SDS011;4304;53.876;10.662;2022-09-09T11:27:54;1.10;;;1.00;;
8532;SDS011;4304;53.876;10.662;2022-09-09T11:30:48;3.38;;;1.00;;
8532;SDS011;4304;53.876;10.662;2022-09-09T11:39:37;1.10;;;0.88;;
8532;SDS011;4304;53.876;10.662;2022-09-09T11:42:22;1.98;;;1.08;;
8532;SDS011;4304;53.876;10.662;2022-09-09T11:44:49;2.05;;;0.98;;
8532;SDS011;4304;53.876;10.662;2022-09-09T11:47:22;2.95;;;0.98;;
8532;SDS011;4304;53.876;10.662;2022-09-09T11:49:49;1.80;;;1.15;;
8532;SDS011;4304;53.876;10.662;2022-09-09T11:52:22;3.28;;;1.30;;
8532;SDS011;4304;53.876;10.662;2022-09-09T11:54:49;3.53;;;1.00;;
8532;SDS011;4304;53.876;10.662;2022-09-09T11:57:19;1.10;;;1.00;;
8532;SDS011;4304;53.876;10.662;2022-09-09T11:59:50;1.75;;;0.90;;
8532;SDS011;4304;53.876;10.662;2022-09-09T12:02:18;2.58;;;1.10;;
8532;SDS011;4304;53.876;10.662;2022-09-09T12:07:33;2.05;;;1.00;;
8532;SDS011;4304;53.876;10.662;2022-09-09T12:10:02;2.05;;;1.30;;
8532;SDS011;4304;53.876;10.662;2022-09-09T12:12:31;2.55;;;1.08;;
8532;SDS011;4304;53.876;10.662;2022-09-09T12:15:03;3.13;;;1.00;;
8532;SDS011;4304;53.876;10.662;2022-09-09T12:17:50;2.42;;;0.90;;
8532;SDS011;4304;53.876;10.662;2022-09-09T12:20:19;1.92;;;0.98;;
8532;SDS011;4304;53.876;10.662;2022-09-09T12:23:15;1.63;;;0.95;;
8532;SDS011;4304;53.876;10.662;2022-09-09T12:28:41;4.28;;;1.13;;
8532;SDS011;4304;53.876;10.662;2022-09-09T12:36:41;1.55;;;0.90;;
8532;SDS011;4304;53.876;10.662;2022-09-09T12:39:15;1.60;;;1.00;;
8532;SDS011;4304;53.876;10.662;2022-09-09T12:41:54;2.33;;;0.95;;
8532;SDS011;4304;53.876;10.662;2022-09-09T12:44:19;1.25;;;0.90;;
8532;SDS011;4304;53.876;10.662;2022-09-09T12:46:44;2.67;;;1.10;;
8532;SDS011;4304;53.876;10.662;2022-09-09T12:52:04;0.75;;;0.73;;
8532;SDS011;4304;53.876;10.662;2022-09-09T12:54:33;0.70;;;0.70;;
8532;SDS011;4304;53.876;10.662;2022-09-09T12:57:01;1.23;;;0.63;;
8532;SDS011;4304;53.876;10.662;2022-09-09T12:59:34;0.70;;;0.70;;
8532;SDS011;4304;53.876;10.662;2022-09-09T13:02:02;3.50;;;1.30;;
8532;SDS011;4304;53.876;10.662;2022-09-09T13:04:36;1.42;;;1.00;;
8532;SDS011;4304;53.876;10.662;2022-09-09T13:07:07;2.03;;;0.93;;
8532;SDS011;4304;53.876;10.662;2022-09-09T13:09:33;1.65;;;1.05;;
8532;SDS011;4304;53.876;10.662;2022-09-09T13:11:58;2.67;;;0.80;;
8532;SDS011;4304;53.876;10.662;2022-09-09T13:14:33;2.80;;;0.95;;
8532;SDS011;4304;53.876;10.662;2022-09-09T13:17:01;1.30;;;0.80;;
8532;SDS011;4304;53.876;10.662;2022-09-09T13:19:29;1.95;;;0.88;;
8532;SDS011;4304;53.876;10.662;2022-09-09T13:21:59;1.05;;;0.80;;
8532;SDS011;4304;53.876;10.662;2022-09-09T13:27:03;3.22;;;1.00;;
8532;SDS011;4304;53.876;10.662;2022-09-09T13:29:51;1.55;;;0.90;;
8532;SDS011;4304;53.876;10.662;2022-09-09T13:32:18;1.15;;;0.95;;
8532;SDS011;4304;53.876;10.662;2022-09-09T13:34:53;1.30;;;0.90;;
8532;SDS011;4304;53.876;10.662;2022-09-09T13:37:39;2.05;;;1.10;;
8532;SDS011;4304;53.876;10.662;2022-09-09T13:40:05;2.45;;;0.70;;
8532;SDS011;4304;53.876;10.662;2022-09-09T13:42:32;3.25;;;1.13;;
8532;SDS011;4304;53.876;10.662;2022-09-09T13:45:05;1.90;;;0.98;;
8532;SDS011;4304;53.876;10.662;2022-09-09T13:47:41;1.05;;;0.90;;
8532;SDS011;4304;53.876;10.662;2022-09-09T13:50:25;1.20;;;0.90;;
8532;SDS011;4304;53.876;10.662;2022-09-09T13:52:56;1.55;;;1.05;;
8532;SDS011;4304;53.876;10.662;2022-09-09T13:55:23;2.05;;;0.93;;
8532;SDS011;4304;53.876;10.662;2022-09-09T13:57:50;4.75;;;1.08;;
8532;SDS011;4304;53.876;10.662;2022-09-09T14:00:16;1.25;;;0.80;;
8532;SDS011;4304;53.876;10.662;2022-09-09T14:02:41;2.33;;;1.08;;
8532;SDS011;4304;53.876;10.662;2022-09-09T14:05:07;2.08;;;1.00;;
8532;SDS011;4304;53.876;10.662;2022-09-09T14:07:32;0.75;;;0.75;;
8532;SDS011;4304;53.876;10.662;2022-09-09T14:09:57;2.00;;;1.38;;
8532;SDS011;4304;53.876;10.662;2022-09-09T14:12:22;1.27;;;0.82;;
8532;SDS011;4304;53.876;10.662;2022-09-09T14:14:48;2.90;;;1.00;;
8532;SDS011;4304;53.876;10.662;2022-09-09T14:17:13;1.20;;;0.97;;
8532;SDS011;4304;53.876;10.662;2022-09-09T14:19:39;3.10;;;1.20;;
8532;SDS011;4304;53.876;10.662;2022-09-09T14:22:04;2.37;;;1.07;;
8532;SDS011;4304;53.876;10.662;2022-09-09T14:24:29;4.07;;;1.10;;
8532;SDS011;4304;53.876;10.662;2022-09-09T14:26:55;0.98;;;0.82;;
8532;SDS011;4304;53.876;10.662;2022-09-09T14:29:20;1.52;;;1.00;;
8532;SDS011;4304;53.876;10.662;2022-09-09T14:31:46;2.58;;;1.20;;
8532;SDS011;4304;53.876;10.662;2022-09-09T14:34:11;1.42;;;1.17;;
8532;SDS011;4304;53.876;10.662;2022-09-09T14:36:37;3.10;;;1.35;;
8532;SDS011;4304;53.876;10.662;2022-09-09T14:39:03;2.45;;;1.25;;
8532;SDS011;4304;53.876;10.662;2022-09-09T14:41:28;6.07;;;1.30;;
8532;SDS011;4304;53.876;10.662;2022-09-09T14:43:54;4.28;;;1.38;;
8532;SDS011;4304;53.876;10.662;2022-09-09T14:46:19;2.95;;;1.30;;
8532;SDS011;4304;53.876;10.662;2022-09-09T14:48:44;4.70;;;1.38;;
8532;SDS011;4304;53.876;10.662;2022-09-09T14:51:17;4.22;;;1.50;;
8532;SDS011;4304;53.876;10.662;2022-09-09T14:53:44;2.13;;;1.40;;
8532;SDS011;4304;53.876;10.662;2022-09-09T14:56:10;3.40;;;1.40;;
8532;SDS011;4304;53.876;10.662;2022-09-09T14:58:37;3.67;;;1.70;;
8532;SDS011;4304;53.876;10.662;2022-09-09T15:01:05;3.75;;;1.55;;
8532;SDS011;4304;53.876;10.662;2022-09-09T15:03:41;3.28;;;1.67;;
8532;SDS011;4304;53.876;10.662;2022-09-09T15:06:13;3.22;;;1.50;;
8532;SDS011;4304;53.876;10.662;2022-09-09T15:08:40;3.08;;;1.42;;
8532;SDS011;4304;53.876;10.662;2022-09-09T15:11:07;1.70;;;1.20;;
8532;SDS011;4304;53.876;10.662;2022-09-09T15:13:36;2.30;;;1.40;;
8532;SDS011;4304;53.876;10.662;2022-09-09T15:16:35;1.98;;;1.48;;
8532;SDS011;4304;53.876;10.662;2022-09-09T15:18:55;3.38;;;1.60;;
8532;SDS011;4304;53.876;10.662;2022-09-09T15:21:23;4.10;;;1.63;;
8532;SDS011;4304;53.876;10.662;2022-09-09T15:23:50;1.20;;;1.10;;
8532;SDS011;4304;53.876;10.662;2022-09-09T15:26:15;4.07;;;1.30;;
8532;SDS011;4304;53.876;10.662;2022-09-09T15:28:41;2.05;;;1.20;;
8532;SDS011;4304;53.876;10.662;2022-09-09T15:31:11;2.70;;;1.30;;
8532;SDS011;4304;53.876;10.662;2022-09-09T15:33:41;3.33;;;1.30;;
8532;SDS011;4304;53.876;10.662;2022-09-09T15:36:14;2.40;;;1.17;;
8532;SDS011;4304;53.876;10.662;2022-09-09T15:38:50;3.10;;;1.38;;
8532;SDS011;4304;53.876;10.662;2022-09-09T15:41:17;1.05;;;0.93;;
8532;SDS011;4304;53.876;10.662;2022-09-09T15:43:44;1.67;;;1.15;;
8532;SDS011;4304;53.876;10.662;2022-09-09T15:48:43;1.35;;;1.05;;
8532;SDS011;4304;53.876;10.662;2022-09-09T15:51:09;5.57;;;1.10;;
8532;SDS011;4304;53.876;10.662;2022-09-09T15:53:35;1.50;;;1.20;;
8532;SDS011;4304;53.876;10.662;2022-09-09T15:56:00;1.13;;;0.80;;
8532;SDS011;4304;53.876;10.662;2022-09-09T15:58:29;1.15;;;0.90;;
8532;SDS011;4304;53.876;10.662;2022-09-09T16:00:59;1.52;;;1.10;;
8532;SDS011;4304;53.876;10.662;2022-09-09T16:03:35;1.88;;;1.10;;
8532;SDS011;4304;53.876;10.662;2022-09-09T16:06:02;2.63;;;1.13;;
8532;SDS011;4304;53.876;10.662;2022-09-09T16:08:32;1.77;;;1.15;;
8532;SDS011;4304;53.876;10.662;2022-09-09T16:11:03;8.35;;;1.05;;
8532;SDS011;4304;53.876;10.662;2022-09-09T16:13:33;1.52;;;1.00;;
8532;SDS011;4304;53.876;10.662;2022-09-09T16:15:59;2.45;;;1.10;;
8532;SDS011;4304;53.876;10.662;2022-09-09T16:18:24;1.92;;;1.13;;
8532;SDS011;4304;53.876;10.662;2022-09-09T16:20:55;1.50;;;1.20;;
8532;SDS011;4304;53.876;10.662;2022-09-09T16:23:20;3.95;;;1.30;;
8532;SDS011;4304;53.876;10.662;2022-09-09T16:25:55;0.93;;;0.90;;
8532;SDS011;4304;53.876;10.662;2022-09-09T16:28:21;1.42;;;1.00;;
8532;SDS011;4304;53.876;10.662;2022-09-09T16:30:46;1.55;;;1.10;;
8532;SDS011;4304;53.876;10.662;2022-09-09T16:33:11;1.60;;;1.00;;
8532;SDS011;4304;53.876;10.662;2022-09-09T16:35:36;1.10;;;0.88;;
8532;SDS011;4304;53.876;10.662;2022-09-09T16:38:02;2.45;;;1.20;;
8532;SDS011;4304;53.876;10.662;2022-09-09T16:40:27;4.70;;;1.13;;
8532;SDS011;4304;53.876;10.662;2022-09-09T16:42:52;3.08;;;1.55;;
8532;SDS011;4304;53.876;10.662;2022-09-09T16:45:17;1.60;;;1.00;;
8532;SDS011;4304;53.876;10.662;2022-09-09T16:47:43;1.88;;;1.00;;
8532;SDS011;4304;53.876;10.662;2022-09-09T16:50:08;3.20;;;1.00;;
8532;SDS011;4304;53.876;10.662;2022-09-09T16:52:33;0.85;;;0.82;;
8532;SDS011;4304;53.876;10.662;2022-09-09T16:54:59;2.80;;;1.10;;
8532;SDS011;4304;53.876;10.662;2022-09-09T16:57:24;1.75;;;0.90;;
8532;SDS011;4304;53.876;10.662;2022-09-09T16:59:49;1.33;;;1.00;;
8532;SDS011;4304;53.876;10.662;2022-09-09T17:02:14;2.75;;;1.17;;
8532;SDS011;4304;53.876;10.662;2022-09-09T17:04:39;2.92;;;1.27;;